Myrtle Beach International Airport
KMYR : rendu visible

Aérodrome :











RETROUVEZ-NOUS SUR...

 
LOGIN :

S'inscrire | Disclaimer

   EN    FR    IT 

 









Légende :    VFR   VFR Marginal   IFR   IFR Intensif   IFR Très Intensif
Visi : 
Plafond : 
>= 8 km
>= 3000ft
5 à 8 km
1000 à 3000 ft
1500m à 5 km
500 à 1000 ft
800 à 1500m
200 à 500 ft
< 800m
< 200 ft
Symboles :   Orages  Brouillard  Fortes neiges  Fortes précipitations  Vent > 20 kt






- Altitude de l'aérodrome : 25 ft
- Code IATA : MYR


KMYR - Myrtle Beach International

DERNIER METAR :
  • 100656Z AUTO 19009KT 10SM CLR 18/17 A3005 RMK AO2 SLP177 T01830172

METARs EXPIRÉS :
  • 100556Z AUTO 21010KT 10SM CLR 19/18 A3005 RMK AO2 SLP177 T01940183 10194 20150 58007
  • 100456Z AUTO 19007KT 10SM CLR 17/17 A3007 RMK AO2 SLP181 T01720167 401720089

TAF KMYR
Valide du 10 à 07h jusqu'au 11 à 06h UTC


100722Z 1007/1106 19009KT P6SM SCT004 BKN250
FM100800 22006KT P6SM BKN004 WS020/22035KT
FM101200 21007KT P6SM SCT007 BKN200 WS020/22035KT
FM101500 20013G23KT P6SM SCT030 SCT250
FM110200 20009KT P6SM BKN150



MET'MAP, la Météo Aéronautique d'un coup d'oeil ! - Copyright ORBIFLY Décembre 2007 - Disclaimer

ORBIFLY MET'MAP TEAM :

Programmation & Développement : Alexandra Zaïnal
Sur une idée originale de : Baudouin d'Aumeries
Assistance à la programmation : Marc-Olivier Méhu
Soutien technique & logistique : Manuel Goepfert

Contact : metmap@orbifly.com




SOURCES & CREDITS :

   NOAA       Earth
Advisory